METAR Data
IDs: Format: Raw Decoded Include TAF

Data at: 2104 UTC 01 Dec 2021

UAKK 012030Z 13003MPS 090V170 CAVOK M04/M11 Q1018 NOSIG RMK QFE716/0955